Time;durP1;ratioP1;P1;durP2;ratioP2;P2;SDS_P1;SDS_P2;PMS_P1;PMS_P2;Temp;Humidity;BMP_temperature;BMP_pressure;BME280_temperature;BME280_humidity;BME280_pressure;Samples;Min_cycle;Max_cycle;Signal;HPM_P1;HPM_P2
2022/03/05 00:02:14;;;;;;;51.83;19.07;;;0.00;99.90;;;;;;5028635;28;20582;-65
2022/03/05 00:04:41;;;;;;;48.60;17.50;;;0.00;99.90;;;;;;5028308;28;20580;-66
2022/03/05 00:07:08;;;;;;;58.57;20.57;;;0.00;99.90;;;;;;5028256;28;20202;-65
2022/03/05 00:09:37;;;;;;;47.07;18.10;;;0.00;99.90;;;;;;5031972;28;20202;-66
2022/03/05 00:12:05;;;;;;;38.00;14.07;;;0.00;99.90;;;;;;5031530;28;20202;-65
2022/03/05 00:14:32;;;;;;;34.80;13.93;;;0.00;99.90;;;;;;5031665;28;20202;-65
2022/03/05 00:16:59;;;;;;;38.37;14.13;;;0.00;99.90;;;;;;5031596;28;20652;-66
2022/03/05 00:19:26;;;;;;;37.23;14.20;;;0.00;99.90;;;;;;5031303;28;20245;-65
2022/03/05 00:21:54;;;;;;;22.37;9.93;;;0.00;99.90;;;;;;5031658;28;20202;-66
2022/03/05 00:24:21;;;;;;;25.13;9.93;;;0.00;99.90;;;;;;5031764;28;20206;-66
2022/03/05 00:26:49;;;;;;;19.57;9.47;;;0.00;99.90;;;;;;5031360;28;20206;-66
2022/03/05 00:29:17;;;;;;;15.27;7.27;;;0.00;99.90;;;;;;5031414;28;20210;-66
2022/03/05 00:31:44;;;;;;;15.10;7.23;;;0.00;99.90;;;;;;5031240;28;20209;-68
2022/03/05 00:34:11;;;;;;;15.27;7.20;;;-0.10;99.90;;;;;;5031748;28;20716;-66
2022/03/05 00:36:39;;;;;;;14.93;7.53;;;-0.10;99.90;;;;;;5031458;28;20206;-67
2022/03/05 00:39:06;;;;;;;15.57;7.30;;;-0.10;99.90;;;;;;5031250;28;20266;-66
2022/03/05 00:41:33;;;;;;;13.27;6.97;;;-0.10;99.90;;;;;;5031380;28;20217;-65
2022/03/05 00:44:02;;;;;;;16.23;7.77;;;-0.10;99.90;;;;;;5031853;28;20697;-66
2022/03/05 00:46:29;;;;;;;11.57;6.90;;;-0.10;99.90;;;;;;5030990;28;20210;-65
2022/03/05 00:48:56;;;;;;;13.07;6.80;;;-0.10;99.90;;;;;;5031399;28;20245;-65
2022/03/05 00:51:23;;;;;;;12.90;7.30;;;-0.10;99.90;;;;;;5031518;28;20656;-66
2022/03/05 00:53:50;;;;;;;12.50;6.60;;;-0.10;99.90;;;;;;5031285;28;20564;-66
2022/03/05 00:56:17;;;;;;;10.73;6.43;;;-0.10;99.90;;;;;;5031028;28;20217;-66
2022/03/05 00:58:45;;;;;;;9.97;6.30;;;0.00;99.90;;;;;;5030868;28;20202;-64
2022/03/05 01:01:13;;;;;;;9.40;6.00;;;0.00;99.90;;;;;;5030914;28;20226;-66
2022/03/05 01:03:41;;;;;;;9.67;6.23;;;0.00;99.90;;;;;;5030664;28;20233;-65
2022/03/05 01:06:08;;;;;;;10.63;5.97;;;0.00;99.90;;;;;;5030906;28;20251;-65
2022/03/05 01:08:35;;;;;;;9.17;5.97;;;0.00;99.90;;;;;;5031058;28;20371;-66
2022/03/05 01:11:03;;;;;;;9.57;6.27;;;0.00;99.90;;;;;;5030806;28;20213;-65
2022/03/05 01:13:30;;;;;;;11.07;5.93;;;0.00;99.90;;;;;;5030573;28;20212;-66
2022/03/05 01:15:57;;;;;;;8.87;5.90;;;0.00;99.90;;;;;;5030702;28;20213;-65
2022/03/05 01:18:26;;;;;;;9.30;5.87;;;0.10;99.90;;;;;;5030187;28;20715;-66
2022/03/05 01:20:53;;;;;;;10.27;6.10;;;0.10;99.90;;;;;;5030503;28;20240;-65
2022/03/05 01:23:20;;;;;;;10.00;5.90;;;0.10;99.90;;;;;;5030429;28;20220;-66
2022/03/05 01:25:47;;;;;;;9.57;5.73;;;0.00;99.90;;;;;;5030668;28;20206;-65
2022/03/05 01:28:14;;;;;;;8.03;5.43;;;0.00;99.90;;;;;;5030543;28;20216;-65
2022/03/05 01:30:42;;;;;;;8.53;5.63;;;0.00;99.90;;;;;;5030627;28;20667;-65
2022/03/05 01:33:09;;;;;;;7.20;5.27;;;0.00;99.90;;;;;;5030449;28;20206;-65
2022/03/05 01:35:37;;;;;;;8.00;5.30;;;0.00;99.90;;;;;;5030560;28;20202;-67
2022/03/05 01:38:05;;;;;;;8.57;5.40;;;0.00;99.90;;;;;;5030655;28;20210;-66
2022/03/05 01:40:32;;;;;;;9.93;5.93;;;0.00;99.90;;;;;;5030025;28;20230;-66
2022/03/05 01:42:59;;;;;;;15.53;7.70;;;0.00;99.90;;;;;;5030239;28;20206;-65
2022/03/05 01:45:26;;;;;;;26.87;10.60;;;0.00;99.90;;;;;;5030311;28;20209;-66
2022/03/05 01:47:54;;;;;;;38.60;14.50;;;0.00;99.90;;;;;;5030189;28;20268;-66
2022/03/05 01:50:21;;;;;;;52.10;17.47;;;0.00;99.90;;;;;;5029953;28;20213;-66
2022/03/05 01:52:50;;;;;;;61.37;22.23;;;0.00;99.90;;;;;;5030319;28;20206;-66
2022/03/05 01:55:18;;;;;;;91.27;27.43;;;0.00;99.90;;;;;;5029959;28;20300;-65
2022/03/05 01:57:45;;;;;;;95.87;32.27;;;0.10;99.90;;;;;;5030105;28;20687;-65
2022/03/05 02:00:14;;;;;;;106.40;33.37;;;0.10;99.90;;;;;;5030213;28;20226;-65
2022/03/05 02:02:41;;;;;;;102.47;33.40;;;0.10;99.90;;;;;;5030212;28;20206;-66
2022/03/05 02:05:10;;;;;;;96.43;30.80;;;0.10;99.90;;;;;;5030093;28;20698;-66
2022/03/05 02:07:37;;;;;;;77.80;26.33;;;0.10;99.90;;;;;;5030020;28;20576;-66
2022/03/05 02:10:08;;;;;;;68.23;23.07;;;0.10;99.90;;;;;;5029949;27;20270;-66
2022/03/05 02:12:37;;;;;;;73.17;22.83;;;0.00;99.90;;;;;;5029639;28;20186;-65
2022/03/05 02:15:06;;;;;;;61.77;21.83;;;0.10;99.90;;;;;;5029676;28;20202;-65
2022/03/05 02:17:33;;;;;;;46.70;16.70;;;0.10;99.90;;;;;;5029657;28;20533;-67
2022/03/05 02:20:00;;;;;;;41.77;15.27;;;0.10;99.90;;;;;;5029466;28;20269;-66
2022/03/05 02:22:29;;;;;;;35.63;13.50;;;0.00;99.90;;;;;;5029810;28;20565;-65
2022/03/05 02:24:58;;;;;;;44.20;14.73;;;0.00;99.90;;;;;;5029944;28;20216;-65
2022/03/05 02:27:25;;;;;;;43.50;15.97;;;0.00;99.90;;;;;;5029428;28;20207;-65
2022/03/05 02:29:53;;;;;;;44.03;15.43;;;0.10;99.90;;;;;;5029503;28;20563;-66
2022/03/05 02:32:21;;;;;;;33.13;12.70;;;0.10;99.90;;;;;;5029422;28;20206;-65
2022/03/05 02:34:48;;;;;;;39.27;13.13;;;0.00;99.90;;;;;;5029619;28;20238;-66
2022/03/05 02:37:17;;;;;;;26.87;11.33;;;0.00;99.90;;;;;;5029588;28;20213;-66
2022/03/05 02:39:46;;;;;;;24.57;9.87;;;0.00;99.90;;;;;;5029639;28;20202;-65
2022/03/05 02:42:15;;;;;;;15.97;8.07;;;0.00;99.90;;;;;;5029463;28;20566;-67
2022/03/05 02:44:43;;;;;;;17.90;7.90;;;0.00;99.90;;;;;;5029255;28;20245;-65
2022/03/05 02:47:10;;;;;;;14.90;6.77;;;0.00;99.90;;;;;;5029721;28;20225;-66
2022/03/05 02:49:37;;;;;;;11.13;6.30;;;0.10;99.90;;;;;;5029207;28;20206;-65
2022/03/05 02:52:05;;;;;;;9.57;5.57;;;0.10;99.90;;;;;;5029193;28;20210;-65
2022/03/05 02:54:32;;;;;;;7.83;5.17;;;0.10;99.90;;;;;;5029041;28;20202;-66
2022/03/05 02:57:01;;;;;;;7.20;4.77;;;0.10;99.90;;;;;;5029078;28;20212;-66
2022/03/05 02:59:28;;;;;;;7.30;4.93;;;0.10;99.90;;;;;;5028929;28;20209;-65
2022/03/05 03:01:56;;;;;;;8.60;5.07;;;0.10;99.90;;;;;;5029340;28;20580;-65
2022/03/05 03:04:23;;;;;;;8.70;5.20;;;0.10;99.90;;;;;;5028831;28;20226;-66
2022/03/05 03:06:51;;;;;;;6.63;5.00;;;0.20;99.90;;;;;;5029335;28;20572;-67
2022/03/05 03:09:18;;;;;;;6.40;4.60;;;0.20;99.90;;;;;;5028677;28;20263;-65
2022/03/05 03:11:45;;;;;;;7.70;4.60;;;0.20;99.90;;;;;;5028924;28;20198;-65
2022/03/05 03:14:13;;;;;;;7.57;4.67;;;0.20;99.90;;;;;;5029347;28;20225;-65
2022/03/05 03:16:41;;;;;;;8.43;5.27;;;0.20;99.90;;;;;;5028853;28;20210;-66
2022/03/05 03:19:08;;;;;;;6.17;4.53;;;0.20;99.90;;;;;;5028880;27;20237;-66
2022/03/05 03:21:35;;;;;;;7.30;4.80;;;0.20;99.90;;;;;;5028738;28;20229;-66
2022/03/05 03:24:02;;;;;;;8.13;4.77;;;0.20;99.90;;;;;;5029029;28;20202;-64
2022/03/05 03:26:29;;;;;;;8.57;5.23;;;0.20;99.90;;;;;;5029100;28;20649;-65
2022/03/05 03:28:56;;;;;;;6.93;4.70;;;0.20;99.90;;;;;;5028997;28;20217;-66
2022/03/05 03:31:26;;;;;;;6.13;4.37;;;0.20;99.90;;;;;;5028625;28;20798;-66
2022/03/05 03:33:53;;;;;;;5.43;4.27;;;0.20;99.90;;;;;;5028976;28;20254;-66
2022/03/05 03:36:21;;;;;;;6.20;4.50;;;0.20;99.90;;;;;;5028446;28;20205;-67
2022/03/05 03:38:48;;;;;;;6.40;4.30;;;0.20;99.90;;;;;;5028836;28;20208;-66
2022/03/05 03:41:15;;;;;;;5.40;3.90;;;0.20;99.90;;;;;;5028550;28;20236;-66
2022/03/05 03:43:42;;;;;;;7.20;4.10;;;0.20;99.90;;;;;;5032469;28;20205;-65
2022/03/05 03:46:09;;;;;;;5.77;4.00;;;0.20;99.90;;;;;;5032205;28;20564;-65
2022/03/05 03:48:38;;;;;;;5.97;4.00;;;0.20;99.90;;;;;;5031927;28;20216;-66
2022/03/05 03:51:05;;;;;;;5.33;3.77;;;0.20;99.90;;;;;;5031935;28;20202;-65
2022/03/05 03:53:32;;;;;;;4.73;3.50;;;0.20;99.90;;;;;;5031936;28;20206;-65
2022/03/05 03:55:59;;;;;;;4.80;3.53;;;0.10;99.90;;;;;;5032017;28;20205;-66
2022/03/05 03:58:26;;;;;;;4.60;3.53;;;0.10;99.90;;;;;;5031847;28;20213;-66
2022/03/05 04:00:54;;;;;;;5.57;3.97;;;0.10;99.90;;;;;;5032010;28;20226;-65
2022/03/05 04:03:21;;;;;;;6.10;3.87;;;0.20;99.90;;;;;;5031626;28;20230;-66
2022/03/05 04:05:49;;;;;;;4.90;3.33;;;0.20;99.90;;;;;;5031777;28;20210;-65
2022/03/05 04:11:01;;;;;;;4.83;3.30;;;0.30;99.90;;;;;;5031932;28;20189;-66
2022/03/05 04:13:28;;;;;;;7.57;3.90;;;0.20;99.90;;;;;;5032154;28;20213;-65
2022/03/05 04:15:56;;;;;;;4.67;3.47;;;0.20;99.90;;;;;;5031943;28;20616;-66
2022/03/05 04:18:23;;;;;;;4.20;3.23;;;0.20;99.90;;;;;;5031660;28;20320;-65
2022/03/05 04:20:51;;;;;;;4.57;3.27;;;0.20;99.90;;;;;;5031768;28;20237;-66
2022/03/05 04:23:19;;;;;;;4.17;3.17;;;0.20;99.90;;;;;;5031301;28;20304;-66
2022/03/05 04:25:46;;;;;;;6.30;3.23;;;0.20;99.90;;;;;;5031585;28;20201;-66
2022/03/05 04:28:13;;;;;;;3.37;3.00;;;0.20;99.90;;;;;;5031515;28;20736;-66
2022/03/05 04:30:40;;;;;;;4.87;3.60;;;0.20;99.90;;;;;;5031629;28;20569;-65
2022/03/05 04:33:07;;;;;;;3.80;3.13;;;0.30;99.90;;;;;;5031216;28;20206;-66
2022/03/05 04:35:34;;;;;;;5.10;3.37;;;0.30;99.90;;;;;;5031548;28;20225;-65
2022/03/05 04:38:03;;;;;;;5.27;3.27;;;0.30;99.90;;;;;;5031046;28;20314;-66
2022/03/05 04:40:30;;;;;;;4.27;3.10;;;0.30;99.90;;;;;;5031436;28;20560;-66
2022/03/05 04:42:59;;;;;;;4.77;3.23;;;0.30;99.90;;;;;;5031017;28;20214;-64
2022/03/05 04:45:26;;;;;;;4.77;3.27;;;0.30;99.90;;;;;;5031067;28;20206;-66
2022/03/05 04:47:54;;;;;;;4.60;3.40;;;0.30;99.90;;;;;;5030957;28;20295;-65
2022/03/05 04:50:21;;;;;;;12.27;5.07;;;0.30;99.90;;;;;;5030975;28;20217;-66
2022/03/05 04:52:48;;;;;;;21.97;9.03;;;0.20;99.90;;;;;;5030653;28;20206;-66
2022/03/05 04:55:17;;;;;;;36.07;13.20;;;0.20;99.90;;;;;;5030466;28;20205;-65
2022/03/05 04:57:44;;;;;;;48.67;16.57;;;0.20;99.90;;;;;;5031183;28;20202;-67
2022/03/05 05:00:12;;;;;;;46.83;16.47;;;0.20;99.90;;;;;;5031184;28;20612;-65
2022/03/05 05:02:40;;;;;;;53.30;18.43;;;0.20;99.90;;;;;;5030977;28;20237;-66
2022/03/05 05:05:08;;;;;;;59.43;18.90;;;0.30;99.90;;;;;;5030925;28;20540;-67
2022/03/05 05:07:35;;;;;;;54.90;19.93;;;0.30;99.90;;;;;;5031126;28;20601;-66
2022/03/05 05:10:02;;;;;;;49.33;17.53;;;0.30;99.90;;;;;;5030559;28;20206;-65
2022/03/05 05:12:31;;;;;;;46.20;17.23;;;0.30;99.90;;;;;;5031068;28;20588;-66
2022/03/05 05:14:58;;;;;;;47.43;16.50;;;0.30;99.90;;;;;;5030575;28;20229;-66
2022/03/05 05:17:25;;;;;;;42.23;15.90;;;0.30;99.90;;;;;;5030517;28;20297;-66
2022/03/05 05:19:52;;;;;;;47.63;17.30;;;0.30;99.90;;;;;;5030330;28;20236;-65
2022/03/05 05:22:19;;;;;;;45.53;16.47;;;0.30;99.90;;;;;;5030777;28;20226;-66
2022/03/05 05:24:46;;;;;;;42.57;16.40;;;0.30;99.90;;;;;;5030507;28;20221;-66
2022/03/05 05:27:14;;;;;;;49.20;17.50;;;0.30;99.90;;;;;;5030624;28;20216;-66
2022/03/05 05:29:42;;;;;;;38.97;14.80;;;0.30;99.90;;;;;;5030660;27;20206;-66
2022/03/05 05:32:10;;;;;;;29.63;11.60;;;0.30;99.90;;;;;;5030299;28;20202;-65
2022/03/05 05:34:37;;;;;;;39.50;13.80;;;0.30;99.90;;;;;;5030241;28;20210;-65
2022/03/05 05:37:05;;;;;;;30.80;11.57;;;0.30;99.90;;;;;;5030146;28;20236;-66
2022/03/05 05:39:32;;;;;;;21.53;8.70;;;0.30;99.90;;;;;;5030613;28;20262;-67
2022/03/05 05:41:59;;;;;;;15.13;7.70;;;0.30;99.90;;;;;;5030021;28;20222;-66
2022/03/05 05:44:27;;;;;;;13.37;6.33;;;0.40;99.90;;;;;;5030284;28;20293;-65
2022/03/05 05:46:56;;;;;;;11.70;5.93;;;0.40;99.90;;;;;;5030021;28;20216;-66
2022/03/05 05:49:23;;;;;;;12.00;5.73;;;0.40;99.90;;;;;;5030147;28;20216;-66
2022/03/05 05:51:50;;;;;;;11.43;6.40;;;0.40;99.90;;;;;;5030199;28;20202;-67
2022/03/05 05:54:17;;;;;;;12.40;6.07;;;0.40;99.90;;;;;;5030052;28;20213;-67
2022/03/05 05:56:44;;;;;;;9.50;5.33;;;0.40;99.90;;;;;;5030264;28;20201;-67
2022/03/05 05:59:11;;;;;;;8.63;4.90;;;0.40;99.90;;;;;;5030260;28;20297;-66
2022/03/05 06:01:39;;;;;;;5.83;4.13;;;0.40;99.90;;;;;;5030001;28;20580;-67
2022/03/05 06:04:08;;;;;;;5.00;3.93;;;0.40;99.90;;;;;;5029667;28;20222;-65
2022/03/05 06:06:35;;;;;;;6.20;3.97;;;0.40;99.90;;;;;;5030219;28;20209;-65
2022/03/05 06:09:02;;;;;;;5.23;4.00;;;0.40;99.90;;;;;;5029818;28;20214;-66
2022/03/05 06:11:30;;;;;;;8.13;3.87;;;0.40;99.90;;;;;;5029797;28;20206;-67
2022/03/05 06:13:57;;;;;;;6.60;3.50;;;0.50;99.90;;;;;;5030061;28;20623;-66
2022/03/05 06:16:24;;;;;;;5.37;3.80;;;0.50;99.90;;;;;;5029868;28;20224;-66
2022/03/05 06:18:52;;;;;;;5.30;3.47;;;0.50;99.90;;;;;;5029446;28;20230;-66
2022/03/05 06:21:20;;;;;;;5.10;3.87;;;0.60;99.90;;;;;;5029849;28;20233;-65
2022/03/05 06:23:47;;;;;;;5.20;3.57;;;0.50;99.90;;;;;;5029496;28;20205;-66
2022/03/05 06:26:15;;;;;;;4.87;3.30;;;0.50;99.90;;;;;;5029653;28;20205;-65
2022/03/05 06:28:42;;;;;;;5.43;3.57;;;0.60;99.90;;;;;;5029552;28;20210;-67
2022/03/05 06:31:09;;;;;;;7.93;3.70;;;0.60;99.90;;;;;;5029879;28;20198;-66
2022/03/05 06:33:36;;;;;;;4.87;3.67;;;0.60;99.90;;;;;;5029774;28;20206;-67
2022/03/05 06:36:04;;;;;;;7.60;3.80;;;0.60;99.90;;;;;;5029407;28;20214;-65
2022/03/05 06:38:33;;;;;;;3.93;2.87;;;0.60;99.90;;;;;;5029693;28;20559;-65
2022/03/05 06:41:00;;;;;;;5.20;3.73;;;0.60;99.90;;;;;;5029266;28;20216;-66
2022/03/05 06:43:27;;;;;;;4.00;3.37;;;0.70;99.90;;;;;;5029200;28;20214;-67
2022/03/05 06:45:54;;;;;;;3.83;2.90;;;0.70;99.90;;;;;;5029285;28;20210;-66
2022/03/05 06:48:21;;;;;;;3.97;2.90;;;0.70;99.90;;;;;;5029173;28;20206;-66
2022/03/05 06:50:48;;;;;;;4.40;2.63;;;0.60;99.90;;;;;;5029337;28;20202;-66
2022/03/05 06:53:15;;;;;;;3.03;2.67;;;0.70;99.90;;;;;;5029456;28;20556;-66
2022/03/05 06:55:44;;;;;;;4.03;2.70;;;0.80;99.90;;;;;;5028978;28;20206;-66
2022/03/05 06:58:11;;;;;;;3.50;2.57;;;0.80;99.90;;;;;;5029000;28;20210;-66
2022/03/05 07:00:38;;;;;;;3.10;2.57;;;0.80;99.90;;;;;;5029024;28;20221;-65
2022/03/05 07:03:05;;;;;;;2.90;2.60;;;0.80;99.90;;;;;;5029173;28;20240;-65
2022/03/05 07:05:33;;;;;;;5.33;2.80;;;0.80;99.90;;;;;;5029072;28;20203;-66
2022/03/05 07:08:00;;;;;;;5.50;3.10;;;0.80;99.90;;;;;;5029356;28;20271;-66
2022/03/05 07:10:27;;;;;;;2.97;2.60;;;0.80;99.90;;;;;;5028867;28;20221;-67
2022/03/05 07:12:55;;;;;;;3.07;2.40;;;0.90;99.90;;;;;;5028996;28;20656;-65
2022/03/05 07:15:23;;;;;;;2.70;2.30;;;1.00;99.90;;;;;;5028840;28;20209;-68
2022/03/05 07:17:51;;;;;;;3.53;2.27;;;1.00;99.90;;;;;;5028311;28;20247;-66
2022/03/05 07:20:19;;;;;;;2.47;2.20;;;1.00;99.90;;;;;;5028647;28;20238;-66
2022/03/05 07:22:46;;;;;;;3.33;2.43;;;1.00;99.90;;;;;;5028805;28;20554;-66
2022/03/05 07:25:14;;;;;;;2.50;2.23;;;1.00;99.90;;;;;;5028860;28;20209;-66
2022/03/05 07:27:42;;;;;;;3.10;2.30;;;1.00;99.90;;;;;;5028943;28;20262;-66
2022/03/05 07:30:11;;;;;;;3.30;2.47;;;1.00;99.90;;;;;;5029260;28;20395;-66
2022/03/05 07:32:38;;;;;;;2.87;2.47;;;1.00;99.90;;;;;;5028497;28;20208;-66
2022/03/05 07:35:06;;;;;;;2.90;2.17;;;1.00;99.90;;;;;;5028886;28;20571;-65
2022/03/05 07:37:34;;;;;;;4.53;2.40;;;1.00;99.90;;;;;;5028401;28;20238;-67
2022/03/05 07:40:01;;;;;;;3.40;2.40;;;0.90;99.90;;;;;;5028531;28;20309;-66
2022/03/05 07:42:28;;;;;;;2.70;2.20;;;1.00;99.90;;;;;;5028653;28;20617;-65
2022/03/05 07:44:56;;;;;;;3.17;2.37;;;1.00;99.90;;;;;;5028560;28;20228;-66
2022/03/05 07:47:24;;;;;;;7.17;3.97;;;1.00;99.90;;;;;;5028285;28;20212;-65
2022/03/05 07:49:51;;;;;;;4.67;3.13;;;1.00;99.90;;;;;;5028298;28;20213;-67
2022/03/05 07:52:18;;;;;;;2.60;2.33;;;1.00;99.90;;;;;;5028388;28;20197;-66
2022/03/05 07:54:46;;;;;;;4.07;2.60;;;1.00;99.90;;;;;;5028374;28;20202;-66
2022/03/05 07:57:13;;;;;;;2.57;2.37;;;1.00;99.90;;;;;;5028302;28;20206;-67
2022/03/05 07:59:40;;;;;;;3.20;2.50;;;1.00;99.90;;;;;;5028201;28;20209;-65
2022/03/05 08:02:08;;;;;;;3.47;2.40;;;1.00;99.90;;;;;;5028134;28;20218;-67
2022/03/05 08:04:37;;;;;;;3.17;2.30;;;1.10;99.90;;;;;;5028068;28;20222;-67
2022/03/05 08:07:07;;;;;;;2.73;2.40;;;1.10;99.90;;;;;;5028203;28;20214;-66
2022/03/05 08:09:35;;;;;;;3.80;2.67;;;1.20;99.90;;;;;;5028428;28;20692;-67
2022/03/05 08:12:02;;;;;;;4.97;2.50;;;1.30;99.90;;;;;;5028408;28;20206;-66
2022/03/05 08:14:29;;;;;;;2.50;2.30;;;1.30;99.90;;;;;;5027926;28;20221;-67
2022/03/05 08:16:56;;;;;;;4.17;2.50;;;1.40;99.90;;;;;;5028289;28;20567;-65
2022/03/05 08:19:24;;;;;;;2.97;2.23;;;1.30;99.90;;;;;;5027744;28;20242;-66
2022/03/05 08:21:52;;;;;;;4.40;2.20;;;1.30;99.90;;;;;;5028215;28;20217;-65
2022/03/05 08:24:19;;;;;;;2.77;2.23;;;1.30;99.90;;;;;;5028028;28;20202;-66
2022/03/05 08:26:46;;;;;;;4.77;2.30;;;1.30;99.90;;;;;;5028130;28;20235;-66
2022/03/05 08:29:13;;;;;;;4.00;2.40;;;1.30;99.90;;;;;;5029741;28;20209;-65
2022/03/05 08:31:41;;;;;;;2.60;2.10;;;1.30;99.90;;;;;;5031121;28;20212;-67
2022/03/05 08:34:08;;;;;;;2.60;2.27;;;1.40;99.90;;;;;;5031445;27;20225;-66
2022/03/05 08:36:35;;;;;;;3.80;2.53;;;1.40;99.90;;;;;;5031123;28;20206;-67
2022/03/05 08:39:04;;;;;;;3.97;2.40;;;1.30;99.90;;;;;;5031365;28;20228;-66
2022/03/05 08:41:31;;;;;;;4.73;2.50;;;1.30;99.90;;;;;;5031215;28;20588;-66
2022/03/05 08:43:58;;;;;;;3.60;2.40;;;1.40;99.90;;;;;;5031442;28;20668;-66
2022/03/05 08:46:25;;;;;;;2.70;2.30;;;1.40;99.90;;;;;;5031261;28;20208;-67
2022/03/05 08:48:52;;;;;;;3.40;2.50;;;1.40;99.90;;;;;;5031280;28;20680;-66
2022/03/05 08:51:20;;;;;;;6.23;3.30;;;1.30;99.90;;;;;;5031184;28;20724;-65
2022/03/05 08:53:47;;;;;;;8.17;3.90;;;1.30;99.90;;;;;;5031241;28;20634;-65
2022/03/05 08:56:15;;;;;;;7.53;3.87;;;1.40;99.90;;;;;;5030949;28;20228;-66
2022/03/05 08:58:42;;;;;;;6.63;3.50;;;1.40;99.90;;;;;;5031237;28;20206;-66
2022/03/05 09:01:10;;;;;;;6.87;4.10;;;1.50;99.90;;;;;;5031205;28;20667;-65
2022/03/05 09:03:37;;;;;;;6.20;3.50;;;1.50;99.90;;;;;;5030897;28;20605;-66
2022/03/05 09:06:04;;;;;;;6.63;3.83;;;1.60;99.90;;;;;;5031091;28;20237;-65
2022/03/05 09:08:31;;;;;;;6.93;4.20;;;1.80;99.90;;;;;;5030962;28;20325;-65
2022/03/05 09:10:59;;;;;;;8.07;4.30;;;1.70;99.90;;;;;;5031097;28;20625;-67
2022/03/05 09:13:27;;;;;;;6.33;3.80;;;1.80;99.90;;;;;;5030518;28;20312;-66
2022/03/05 09:15:54;;;;;;;6.83;4.10;;;1.80;99.90;;;;;;5030620;28;20198;-65
2022/03/05 09:18:21;;;;;;;6.57;4.20;;;1.80;99.90;;;;;;5030721;28;20719;-67
2022/03/05 09:20:48;;;;;;;6.40;4.20;;;1.80;99.90;;;;;;5030797;28;20195;-66
2022/03/05 09:23:16;;;;;;;6.70;4.20;;;1.80;99.90;;;;;;5029834;28;20253;-66
2022/03/05 09:25:43;;;;;;;10.37;4.37;;;1.90;99.90;;;;;;5030577;28;20202;-67
2022/03/05 09:28:10;;;;;;;5.53;3.10;;;1.90;99.90;;;;;;5030620;28;20217;-65
2022/03/05 09:30:39;;;;;;;4.07;2.80;;;2.00;99.90;;;;;;5030543;28;20206;-66
2022/03/05 09:33:07;;;;;;;4.30;2.80;;;2.00;99.90;;;;;;5030597;28;20228;-65
2022/03/05 09:35:34;;;;;;;4.83;2.33;;;2.00;99.90;;;;;;5030591;28;20221;-67
2022/03/05 09:38:02;;;;;;;3.53;2.23;;;2.00;99.90;;;;;;5030662;28;20677;-67
2022/03/05 09:40:29;;;;;;;3.67;2.20;;;2.00;99.90;;;;;;5029740;28;20302;-67
2022/03/05 09:42:57;;;;;;;2.80;2.37;;;2.00;99.90;;;;;;5030133;28;20226;-66
2022/03/05 09:45:24;;;;;;;3.57;2.30;;;2.00;99.90;;;;;;5030455;28;20210;-66
2022/03/05 09:47:52;;;;;;;3.07;2.30;;;2.10;99.90;;;;;;5030138;28;20217;-66
2022/03/05 09:50:20;;;;;;;3.10;2.10;;;2.20;99.90;;;;;;5029996;28;20206;-66
2022/03/05 09:52:47;;;;;;;3.70;2.10;;;2.20;99.90;;;;;;5030473;28;20570;-66
2022/03/05 09:55:14;;;;;;;4.77;2.23;;;2.20;99.90;;;;;;5029841;28;20208;-66
2022/03/05 09:57:42;;;;;;;2.07;1.90;;;2.20;99.90;;;;;;5030261;28;20638;-66
2022/03/05 10:00:10;;;;;;;3.77;2.30;;;2.20;99.90;;;;;;5029263;28;20214;-67
2022/03/05 10:02:38;;;;;;;2.60;2.10;;;2.10;99.90;;;;;;5030171;28;20599;-66
2022/03/05 10:05:18;;;;;;;4.50;2.60;;;2.10;99.90;;;;;;5029941;28;20297;-67
2022/03/05 10:08:08;;;;;;;4.83;2.53;;;2.10;99.90;;;;;;5029976;28;20197;-66
2022/03/05 10:10:47;;;;;;;3.93;2.40;;;2.10;99.90;;;;;;5026122;27;20202;-67
2022/03/05 10:13:23;;;;;;;3.40;2.50;;;2.00;99.90;;;;;;5029689;28;20183;-66
2022/03/05 10:15:52;;;;;;;2.60;2.20;;;2.00;99.90;;;;;;5029861;28;20194;-66
2022/03/05 10:18:25;;;;;;;4.43;2.30;;;2.00;99.90;;;;;;5029508;28;20594;-67
2022/03/05 10:20:54;;;;;;;2.30;2.00;;;2.10;99.90;;;;;;5029745;28;20210;-66
2022/03/05 10:23:22;;;;;;;3.67;2.57;;;2.20;99.90;;;;;;5029614;28;20229;-66
2022/03/05 10:25:51;;;;;;;2.97;2.40;;;2.20;99.90;;;;;;5031639;28;20206;-67
2022/03/05 10:28:21;;;;;;;4.20;2.43;;;2.20;99.90;;;;;;5029391;28;20206;-67
2022/03/05 10:30:50;;;;;;;2.83;2.43;;;2.10;99.90;;;;;;5029453;28;20190;-67
2022/03/05 10:33:28;;;;;;;6.43;3.83;;;2.10;99.90;;;;;;5028409;28;20209;-67
2022/03/05 10:35:59;;;;;;;9.70;4.40;;;2.10;99.90;;;;;;5029357;28;20206;-68
2022/03/05 10:38:47;;;;;;;12.50;5.80;;;2.00;99.90;;;;;;5029255;28;20297;-67
2022/03/05 10:41:17;;;;;;;12.10;6.13;;;2.00;99.90;;;;;;5029169;28;20194;-68
2022/03/05 10:43:44;;;;;;;16.97;7.20;;;2.00;99.90;;;;;;5029113;28;20259;-67
2022/03/05 10:46:12;;;;;;;13.47;6.67;;;2.00;99.90;;;;;;5029362;28;20214;-67
2022/03/05 10:48:41;;;;;;;10.50;6.07;;;2.00;99.90;;;;;;5029524;28;20202;-66
2022/03/05 10:51:16;;;;;;;11.90;5.13;;;2.00;99.90;;;;;;5028520;28;20299;-68
2022/03/05 10:53:46;;;;;;;12.37;5.87;;;2.00;99.90;;;;;;5029522;28;20678;-67
2022/03/05 10:56:37;;;;;;;9.33;5.33;;;2.00;99.90;;;;;;5028989;28;20216;-68
2022/03/05 10:59:08;;;;;;;14.77;7.80;;;1.90;99.90;;;;;;5014258;28;20210;-68
2022/03/05 11:01:38;;;;;;;37.53;14.17;;;1.80;99.90;;;;;;5029230;28;20544;-66
2022/03/05 11:04:09;;;;;;;92.73;34.00;;;1.80;99.90;;;;;;5028394;28;20233;-68
2022/03/05 11:06:40;;;;;;;67.17;24.87;;;1.90;99.90;;;;;;5028768;28;20644;-70
2022/03/05 11:09:09;;;;;;;33.07;13.80;;;1.80;99.90;;;;;;5028847;28;20241;-68
2022/03/05 11:11:39;;;;;;;38.83;16.23;;;1.80;99.90;;;;;;5028824;28;20202;-69
2022/03/05 11:14:08;;;;;;;38.23;16.23;;;1.70;99.90;;;;;;4994518;28;20198;-67
2022/03/05 11:16:36;;;;;;;29.87;12.60;;;1.70;99.90;;;;;;4994272;28;20664;-68
2022/03/05 11:19:05;;;;;;;23.37;9.90;;;1.70;99.90;;;;;;5028554;28;20238;-67
2022/03/05 11:21:35;;;;;;;25.03;8.83;;;1.70;99.90;;;;;;5029076;28;20239;-69
2022/03/05 11:24:07;;;;;;;17.77;7.40;;;1.80;99.90;;;;;;5028599;28;20265;-69
2022/03/05 11:26:37;;;;;;;13.80;6.27;;;1.90;99.90;;;;;;5028928;28;20251;-67
2022/03/05 11:29:05;;;;;;;11.63;6.00;;;2.00;99.90;;;;;;5028805;28;20232;-67
2022/03/05 11:31:37;;;;;;;11.53;5.67;;;1.90;99.90;;;;;;5028589;28;20209;-69
2022/03/05 11:34:15;;;;;;;12.37;6.10;;;2.00;99.90;;;;;;5028508;28;20193;-67
2022/03/05 11:36:43;;;;;;;7.80;4.90;;;1.90;99.90;;;;;;5029001;28;20217;-67
2022/03/05 11:39:15;;;;;;;9.77;5.00;;;2.00;99.90;;;;;;5078843;28;20246;-67
2022/03/05 11:42:04;;;;;;;9.30;4.40;;;2.00;99.90;;;;;;5028532;28;20647;-68
2022/03/05 11:44:40;;;;;;;7.77;4.50;;;2.00;99.90;;;;;;5028457;28;20580;-68
2022/03/05 11:47:27;;;;;;;6.73;3.90;;;2.00;99.90;;;;;;5028423;28;20193;-66
2022/03/05 11:50:11;;;;;;;4.93;3.80;;;2.10;99.90;;;;;;5028375;28;20217;-68
2022/03/05 11:53:14;;;;;;;7.63;3.50;;;2.10;99.90;;;;;;5028297;28;20197;-67
2022/03/05 11:55:46;;;;;;;4.23;3.27;;;2.20;99.90;;;;;;4967297;28;20193;-67
2022/03/05 11:58:37;;;;;;;6.37;3.50;;;2.20;99.90;;;;;;4967178;28;20189;-67
2022/03/05 12:01:36;;;;;;;7.57;3.67;;;2.20;99.90;;;;;;4967117;28;20224;-68
2022/03/05 12:04:24;;;;;;;5.27;3.40;;;2.30;99.90;;;;;;4999024;28;20497;-67
2022/03/05 12:06:58;;;;;;;4.27;3.10;;;2.40;99.90;;;;;;4970646;28;20211;-66
2022/03/05 12:09:40;;;;;;;3.77;2.70;;;2.40;99.90;;;;;;4970507;28;20196;-67
2022/03/05 12:12:12;;;;;;;4.10;2.90;;;2.40;99.90;;;;;;4970535;28;20244;-68
2022/03/05 12:15:11;;;;;;;3.87;2.83;;;2.40;99.90;;;;;;4954670;28;20249;-68
2022/03/05 12:17:41;;;;;;;4.63;2.90;;;2.40;99.90;;;;;;4970398;28;20257;-68
2022/03/05 12:20:11;;;;;;;7.60;3.10;;;2.40;99.90;;;;;;4969992;28;20271;-67
2022/03/05 12:22:58;;;;;;;4.07;2.97;;;2.40;99.90;;;;;;4970265;28;20725;-68
2022/03/05 12:25:27;;;;;;;3.63;2.53;;;2.40;99.90;;;;;;4971327;28;20246;-68
2022/03/05 12:27:58;;;;;;;3.70;2.80;;;2.40;99.90;;;;;;5031168;28;20220;-67
2022/03/05 12:30:28;;;;;;;6.03;3.13;;;2.40;99.90;;;;;;5031333;28;20554;-67
2022/03/05 12:33:00;;;;;;;4.40;3.00;;;2.40;99.90;;;;;;5031011;28;20202;-67
2022/03/05 12:35:28;;;;;;;3.97;2.80;;;2.40;99.90;;;;;;5031177;28;20194;-67
2022/03/05 12:37:57;;;;;;;4.90;2.80;;;2.40;99.90;;;;;;5031021;28;20245;-67
2022/03/05 12:40:27;;;;;;;4.07;2.90;;;2.40;99.90;;;;;;5031056;28;20246;-67
2022/03/05 12:42:56;;;;;;;5.20;3.37;;;2.40;99.90;;;;;;5030931;28;20296;-67
2022/03/05 12:45:25;;;;;;;4.50;3.40;;;2.40;99.90;;;;;;5031440;28;20202;-67
2022/03/05 12:47:53;;;;;;;3.63;3.17;;;2.40;99.90;;;;;;5030940;28;20210;-67
2022/03/05 12:50:26;;;;;;;5.03;3.30;;;2.40;99.90;;;;;;5031162;28;20209;-67
2022/03/05 12:53:03;;;;;;;5.13;3.20;;;2.40;99.90;;;;;;5031200;28;20544;-67
2022/03/05 12:55:33;;;;;;;5.70;2.90;;;2.40;99.90;;;;;;5030969;28;20194;-68
2022/03/05 12:58:08;;;;;;;7.97;3.07;;;2.40;99.90;;;;;;5030694;28;20201;-68
2022/03/05 13:00:36;;;;;;;3.57;2.80;;;2.40;99.90;;;;;;5031170;28;20644;-67
2022/03/05 13:03:04;;;;;;;4.33;2.90;;;2.40;99.90;;;;;;5030552;28;20361;-68